PWSweather.com
Personal Weather Stations
Station Observations
PICKERING
North Yorkshire, PickeringGB

North YorkshirePickeringGB

Lat: 54.2494, Lon: -0.7725

Elevation: 192

Station Type: Oregon Scientific WMR100

http://www.yorkshirewalker.co.uk/weather/

High Low Average
Temperature 41.4°F5.2°C 39.6°F4.2°C 40.5°F4.7°C
Dew Point 37.4°F3.0°C 33.8°F1.0°C 36.0°F2.2°C
Winds 3.9 mph 6.3 kmh Calm Calm 2.0 mph SE3.2 kmh SE
Wind Gusts 9.8 mph15.8 kmh -- 4.0 mph6.4 kmh
Humidity 88% 80% 84%
Pressure 30.24 in1024.0 mb 30.12 in1020.0 mb -
Precipitation 0.00 in0.0 mm - -
Hour Temp Dew Point Humidity Winds Wind Gusts Pressure Precip Precip Rate Daily Precip Total
12:00 AM 39.7°F4.3°C 35.6°F2.0°C 88% 1.6 mph ESE2.6 kmh ESE 3.1 mph5.0 kmh 30.24 in1024.0 mb 0.00 in0.0 mm 0.00 in0.0 mm 0.00 in0.0 mm
12:05 AM 39.6°F4.2°C 35.6°F2.0°C 88% 2.1 mph ESE3.4 kmh ESE 3.6 mph5.8 kmh 30.24 in1024.0 mb 0.00 in0.0 mm 0.00 in0.0 mm 0.00 in0.0 mm
12:10 AM 39.6°F4.2°C 35.6°F2.0°C 88% 2.7 mph SE4.3 kmh SE 4.0 mph6.4 kmh 30.24 in1024.0 mb 0.00 in0.0 mm 0.00 in0.0 mm 0.00 in0.0 mm
12:15 AM 39.7°F4.3°C 35.6°F2.0°C 88% 2.8 mph SE4.5 kmh SE 4.9 mph7.9 kmh 30.24 in1024.0 mb 0.00 in0.0 mm 0.00 in0.0 mm 0.00 in0.0 mm
12:20 AM 39.7°F4.3°C 35.6°F2.0°C 88% 2.3 mph SE3.7 kmh SE 4.9 mph7.9 kmh 30.24 in1024.0 mb 0.00 in0.0 mm 0.00 in0.0 mm 0.00 in0.0 mm
12:25 AM 39.7°F4.3°C 35.6°F2.0°C 88% 1.6 mph SE2.6 kmh SE 4.0 mph6.4 kmh 30.21 in1023.0 mb 0.00 in0.0 mm 0.00 in0.0 mm 0.00 in0.0 mm
12:30 AM 39.7°F4.3°C 35.6°F2.0°C 88% 2.3 mph ESE3.7 kmh ESE 7.8 mph12.6 kmh 30.21 in1023.0 mb 0.00 in0.0 mm 0.00 in0.0 mm 0.00 in0.0 mm
12:35 AM 39.7°F4.3°C 35.6°F2.0°C 88% 2.8 mph E4.5 kmh E 7.8 mph12.6 kmh 30.21 in1023.0 mb 0.00 in0.0 mm 0.00 in0.0 mm 0.00 in0.0 mm
12:40 AM 39.7°F4.3°C 35.6°F2.0°C 88% 2.0 mph E3.2 kmh E 5.4 mph8.7 kmh 30.21 in1023.0 mb 0.00 in0.0 mm 0.00 in0.0 mm 0.00 in0.0 mm
12:45 AM 39.7°F4.3°C 35.6°F2.0°C 88% 2.6 mph ESE4.2 kmh ESE 5.8 mph9.3 kmh 30.21 in1023.0 mb 0.00 in0.0 mm 0.00 in0.0 mm 0.00 in0.0 mm
12:50 AM 39.7°F4.3°C 35.6°F2.0°C 88% 2.1 mph ESE3.4 kmh ESE 5.8 mph9.3 kmh 30.21 in1023.0 mb 0.00 in0.0 mm 0.00 in0.0 mm 0.00 in0.0 mm
12:55 AM 39.7°F4.3°C 35.6°F2.0°C 88% 1.2 mph ESE1.9 kmh ESE 2.7 mph4.3 kmh 30.21 in1023.0 mb 0.00 in0.0 mm 0.00 in0.0 mm 0.00 in0.0 mm
01:00 AM 39.7°F4.3°C 35.6°F2.0°C 88% 1.4 mph ESE2.3 kmh ESE 4.0 mph6.4 kmh 30.21 in1023.0 mb 0.00 in0.0 mm 0.00 in0.0 mm 0.00 in0.0 mm
01:05 AM 39.7°F4.3°C 35.6°F2.0°C 88% 2.1 mph E3.4 kmh E 4.9 mph7.9 kmh 30.21 in1023.0 mb 0.00 in0.0 mm 0.00 in0.0 mm 0.00 in0.0 mm
01:10 AM 39.9°F4.4°C 37.4°F3.0°C 88% 2.8 mph E4.5 kmh E 6.0 mph9.7 kmh 30.21 in1023.0 mb 0.00 in0.0 mm 0.00 in0.0 mm 0.00 in0.0 mm
01:15 AM 39.7°F4.3°C 35.6°F2.0°C 88% 2.3 mph ESE3.7 kmh ESE 6.0 mph9.7 kmh 30.21 in1023.0 mb 0.00 in0.0 mm 0.00 in0.0 mm 0.00 in0.0 mm
01:20 AM 39.9°F4.4°C 37.4°F3.0°C 88% 2.1 mph E3.4 kmh E 4.3 mph6.9 kmh 30.21 in1023.0 mb 0.00 in0.0 mm 0.00 in0.0 mm 0.00 in0.0 mm
01:25 AM 39.9°F4.4°C 37.4°F3.0°C 88% 2.1 mph E3.4 kmh E 4.3 mph6.9 kmh 30.21 in1023.0 mb 0.00 in0.0 mm 0.00 in0.0 mm 0.00 in0.0 mm
01:30 AM 39.9°F4.4°C 37.4°F3.0°C 88% 1.5 mph E2.4 kmh E 3.8 mph6.1 kmh 30.21 in1023.0 mb 0.00 in0.0 mm 0.00 in0.0 mm 0.00 in0.0 mm
01:35 AM 39.9°F4.4°C 37.4°F3.0°C 88% 1.1 mph SE1.8 kmh SE 2.2 mph3.5 kmh 30.21 in1023.0 mb 0.00 in0.0 mm 0.00 in0.0 mm 0.00 in0.0 mm
01:40 AM 39.9°F4.4°C 37.4°F3.0°C 88% 1.5 mph E2.4 kmh E 3.1 mph5.0 kmh 30.21 in1023.0 mb 0.00 in0.0 mm 0.00 in0.0 mm 0.00 in0.0 mm
01:45 AM 40.1°F4.5°C 37.4°F3.0°C 88% 1.7 mph E2.7 kmh E 3.1 mph5.0 kmh 30.21 in1023.0 mb 0.00 in0.0 mm 0.00 in0.0 mm 0.00 in0.0 mm
01:50 AM 40.1°F4.5°C 37.4°F3.0°C 88% 1.3 mph ENE2.1 kmh ENE 2.2 mph3.5 kmh 30.21 in1023.0 mb 0.00 in0.0 mm 0.00 in0.0 mm 0.00 in0.0 mm
01:55 AM 40.1°F4.5°C 37.4°F3.0°C 88% 1.2 mph ESE1.9 kmh ESE 2.7 mph4.3 kmh 30.21 in1023.0 mb 0.00 in0.0 mm 0.00 in0.0 mm 0.00 in0.0 mm
02:00 AM 40.1°F4.5°C 37.4°F3.0°C 88% 1.1 mph SE1.8 kmh SE 2.7 mph4.3 kmh 30.21 in1023.0 mb 0.00 in0.0 mm 0.00 in0.0 mm 0.00 in0.0 mm
02:05 AM 40.1°F4.5°C 37.4°F3.0°C 88% 0.9 mph SE1.4 kmh SE 2.7 mph4.3 kmh 30.21 in1023.0 mb 0.00 in0.0 mm 0.00 in0.0 mm 0.00 in0.0 mm
02:10 AM 40.1°F4.5°C 37.4°F3.0°C 88% 1.0 mph S1.6 kmh S 2.7 mph4.3 kmh 30.21 in1023.0 mb 0.00 in0.0 mm 0.00 in0.0 mm 0.00 in0.0 mm
02:15 AM 40.1°F4.5°C 37.4°F3.0°C 88% 0.8 mph S1.3 kmh S 2.7 mph4.3 kmh 30.21 in1023.0 mb 0.00 in0.0 mm 0.00 in0.0 mm 0.00 in0.0 mm
02:20 AM 40.1°F4.5°C 37.4°F3.0°C 88% 0.5 mph SE0.8 kmh SE 1.6 mph2.6 kmh 30.21 in1023.0 mb 0.00 in0.0 mm 0.00 in0.0 mm 0.00 in0.0 mm
02:25 AM 40.1°F4.5°C 37.4°F3.0°C 88% 0.8 mph SSE1.3 kmh SSE 1.6 mph2.6 kmh 30.21 in1023.0 mb 0.00 in0.0 mm 0.00 in0.0 mm 0.00 in0.0 mm
02:30 AM 40.1°F4.5°C 37.4°F3.0°C 88% 0.7 mph SSE1.1 kmh SSE 1.6 mph2.6 kmh 30.21 in1023.0 mb 0.00 in0.0 mm 0.00 in0.0 mm 0.00 in0.0 mm
02:35 AM 40.1°F4.5°C 37.4°F3.0°C 88% 0.6 mph SSE1.0 kmh SSE 1.1 mph1.8 kmh 30.21 in1023.0 mb 0.00 in0.0 mm 0.00 in0.0 mm 0.00 in0.0 mm
02:40 AM 40.1°F4.5°C 37.4°F3.0°C 88% 0.5 mph S0.8 kmh S 1.1 mph1.8 kmh 30.18 in1022.0 mb 0.00 in0.0 mm 0.00 in0.0 mm 0.00 in0.0 mm
02:45 AM 40.3°F4.6°C 37.4°F3.0°C 88% 0.3 mph WSW0.5 kmh WSW 2.2 mph3.5 kmh 30.18 in1022.0 mb 0.00 in0.0 mm 0.00 in0.0 mm 0.00 in0.0 mm
02:50 AM 40.3°F4.6°C 37.4°F3.0°C 88% 0.6 mph SE1.0 kmh SE 3.4 mph5.5 kmh 30.18 in1022.0 mb 0.00 in0.0 mm 0.00 in0.0 mm 0.00 in0.0 mm
02:55 AM 40.3°F4.6°C 37.4°F3.0°C 88% 1.1 mph SE1.8 kmh SE 3.4 mph5.5 kmh 30.18 in1022.0 mb 0.00 in0.0 mm 0.00 in0.0 mm 0.00 in0.0 mm
03:00 AM 40.3°F4.6°C 37.4°F3.0°C 88% 1.1 mph SSE1.8 kmh SSE 2.5 mph4.0 kmh 30.18 in1022.0 mb 0.00 in0.0 mm 0.00 in0.0 mm 0.00 in0.0 mm
03:05 AM 40.3°F4.6°C 37.4°F3.0°C 88% 0.7 mph ESE1.1 kmh ESE 2.0 mph3.2 kmh 30.18 in1022.0 mb 0.00 in0.0 mm 0.00 in0.0 mm 0.00 in0.0 mm
03:10 AM 40.3°F4.6°C 37.4°F3.0°C 88% 1.2 mph ENE1.9 kmh ENE 4.0 mph6.4 kmh 30.18 in1022.0 mb 0.00 in0.0 mm 0.00 in0.0 mm 0.00 in0.0 mm
03:15 AM 40.3°F4.6°C 37.4°F3.0°C 88% 1.2 mph ENE1.9 kmh ENE 4.0 mph6.4 kmh 30.18 in1022.0 mb 0.00 in0.0 mm 0.00 in0.0 mm 0.00 in0.0 mm
03:20 AM 40.3°F4.6°C 37.4°F3.0°C 88% 1.3 mph E2.1 kmh E 3.1 mph5.0 kmh 30.18 in1022.0 mb 0.00 in0.0 mm 0.00 in0.0 mm 0.00 in0.0 mm
03:25 AM 40.3°F4.6°C 37.4°F3.0°C 88% 1.6 mph SE2.6 kmh SE 3.1 mph5.0 kmh 30.18 in1022.0 mb 0.00 in0.0 mm 0.00 in0.0 mm 0.00 in0.0 mm
03:30 AM 40.3°F4.6°C 37.4°F3.0°C 88% 1.7 mph E2.7 kmh E 3.1 mph5.0 kmh 30.18 in1022.0 mb 0.00 in0.0 mm 0.00 in0.0 mm 0.00 in0.0 mm
03:35 AM 40.3°F4.6°C 37.4°F3.0°C 88% 1.9 mph ESE3.1 kmh ESE 3.1 mph5.0 kmh 30.18 in1022.0 mb 0.00 in0.0 mm 0.00 in0.0 mm 0.00 in0.0 mm
03:40 AM 40.3°F4.6°C 37.4°F3.0°C 88% 2.1 mph ESE3.4 kmh ESE 3.8 mph6.1 kmh 30.18 in1022.0 mb 0.00 in0.0 mm 0.00 in0.0 mm 0.00 in0.0 mm
03:45 AM 40.3°F4.6°C 37.4°F3.0°C 88% 1.6 mph ESE2.6 kmh ESE 3.8 mph6.1 kmh 30.18 in1022.0 mb 0.00 in0.0 mm 0.00 in0.0 mm 0.00 in0.0 mm
03:50 AM 40.3°F4.6°C 37.4°F3.0°C 88% 0.8 mph SSE1.3 kmh SSE 2.2 mph3.5 kmh 30.18 in1022.0 mb 0.00 in0.0 mm 0.00 in0.0 mm 0.00 in0.0 mm
03:55 AM 40.3°F4.6°C 37.4°F3.0°C 88% 0.8 mph SSE1.3 kmh SSE 1.3 mph2.1 kmh 30.18 in1022.0 mb 0.00 in0.0 mm 0.00 in0.0 mm 0.00 in0.0 mm
04:00 AM 40.3°F4.6°C 37.4°F3.0°C 88% 1.2 mph SE1.9 kmh SE 2.5 mph4.0 kmh 30.18 in1022.0 mb 0.00 in0.0 mm 0.00 in0.0 mm 0.00 in0.0 mm
04:05 AM 40.3°F4.6°C 37.4°F3.0°C 88% 1.2 mph ESE1.9 kmh ESE 2.5 mph4.0 kmh 30.18 in1022.0 mb 0.00 in0.0 mm 0.00 in0.0 mm 0.00 in0.0 mm
04:10 AM 40.3°F4.6°C 37.4°F3.0°C 88% 1.1 mph ENE1.8 kmh ENE 2.5 mph4.0 kmh 30.18 in1022.0 mb 0.00 in0.0 mm 0.00 in0.0 mm 0.00 in0.0 mm
04:15 AM 40.3°F4.6°C 37.4°F3.0°C 88% 1.1 mph ENE1.8 kmh ENE 2.2 mph3.5 kmh 30.18 in1022.0 mb 0.00 in0.0 mm 0.00 in0.0 mm 0.00 in0.0 mm
04:20 AM 40.3°F4.6°C 37.4°F3.0°C 88% 1.1 mph NNW1.8 kmh NNW 2.2 mph3.5 kmh 30.18 in1022.0 mb 0.00 in0.0 mm 0.00 in0.0 mm 0.00 in0.0 mm
04:25 AM 40.3°F4.6°C 37.4°F3.0°C 88% 0.9 mph NE1.4 kmh NE 2.0 mph3.2 kmh 30.18 in1022.0 mb 0.00 in0.0 mm 0.00 in0.0 mm 0.00 in0.0 mm
04:30 AM 40.3°F4.6°C 37.4°F3.0°C 88% 1.0 mph SSE1.6 kmh SSE 3.4 mph5.5 kmh 30.18 in1022.0 mb 0.00 in0.0 mm 0.00 in0.0 mm 0.00 in0.0 mm
04:35 AM 40.3°F4.6°C 37.4°F3.0°C 88% 1.5 mph S2.4 kmh S 3.4 mph5.5 kmh 30.18 in1022.0 mb 0.00 in0.0 mm 0.00 in0.0 mm 0.00 in0.0 mm
04:40 AM 40.3°F4.6°C 37.4°F3.0°C 88% 1.5 mph SE2.4 kmh SE 3.1 mph5.0 kmh 30.18 in1022.0 mb 0.00 in0.0 mm 0.00 in0.0 mm 0.00 in0.0 mm
04:45 AM 40.3°F4.6°C 37.4°F3.0°C 88% 1.1 mph SE1.8 kmh SE 3.1 mph5.0 kmh 30.18 in1022.0 mb 0.00 in0.0 mm 0.00 in0.0 mm 0.00 in0.0 mm
04:50 AM 40.3°F4.6°C 37.4°F3.0°C 88% 1.0 mph SE1.6 kmh SE 2.2 mph3.5 kmh 30.18 in1022.0 mb 0.00 in0.0 mm 0.00 in0.0 mm 0.00 in0.0 mm
04:55 AM 40.3°F4.6°C 37.4°F3.0°C 88% 1.3 mph SE2.1 kmh SE 3.8 mph6.1 kmh 30.15 in1021.0 mb 0.00 in0.0 mm 0.00 in0.0 mm 0.00 in0.0 mm
05:00 AM 40.3°F4.6°C 37.4°F3.0°C 88% 1.2 mph SE1.9 kmh SE 3.8 mph6.1 kmh 30.15 in1021.0 mb 0.00 in0.0 mm 0.00 in0.0 mm 0.00 in0.0 mm
05:05 AM 40.1°F4.5°C 37.4°F3.0°C 88% 1.0 mph SE1.6 kmh SE 2.9 mph4.7 kmh 30.15 in1021.0 mb 0.00 in0.0 mm 0.00 in0.0 mm 0.00 in0.0 mm
05:10 AM 40.1°F4.5°C 37.4°F3.0°C 88% 1.6 mph E2.6 kmh E 3.1 mph5.0 kmh 30.15 in1021.0 mb 0.00 in0.0 mm 0.00 in0.0 mm 0.00 in0.0 mm
05:15 AM 40.1°F4.5°C 37.4°F3.0°C 88% 1.8 mph S2.9 kmh S 3.1 mph5.0 kmh 30.15 in1021.0 mb 0.00 in0.0 mm 0.00 in0.0 mm 0.00 in0.0 mm
05:20 AM 40.1°F4.5°C 37.4°F3.0°C 88% 1.7 mph SSE2.7 kmh SSE 3.4 mph5.5 kmh 30.15 in1021.0 mb 0.00 in0.0 mm 0.00 in0.0 mm 0.00 in0.0 mm
05:25 AM 40.1°F4.5°C 37.4°F3.0°C 88% 1.6 mph SE2.6 kmh SE 3.4 mph5.5 kmh 30.15 in1021.0 mb 0.00 in0.0 mm 0.00 in0.0 mm 0.00 in0.0 mm
05:30 AM 40.1°F4.5°C 37.4°F3.0°C 88% 1.5 mph E2.4 kmh E 4.7 mph7.6 kmh 30.15 in1021.0 mb 0.00 in0.0 mm 0.00 in0.0 mm 0.00 in0.0 mm
05:35 AM 40.1°F4.5°C 37.4°F3.0°C 87% 2.1 mph ESE3.4 kmh ESE 4.7 mph7.6 kmh 30.15 in1021.0 mb 0.00 in0.0 mm 0.00 in0.0 mm 0.00 in0.0 mm
05:40 AM 40.1°F4.5°C 37.4°F3.0°C 87% 2.5 mph ENE4.0 kmh ENE 5.4 mph8.7 kmh 30.15 in1021.0 mb 0.00 in0.0 mm 0.00 in0.0 mm 0.00 in0.0 mm
05:45 AM 40.1°F4.5°C 37.4°F3.0°C 87% 1.9 mph NE3.1 kmh NE 5.4 mph8.7 kmh 30.15 in1021.0 mb 0.00 in0.0 mm 0.00 in0.0 mm 0.00 in0.0 mm
05:50 AM 40.1°F4.5°C 37.4°F3.0°C 87% 1.5 mph E2.4 kmh E 3.8 mph6.1 kmh 30.15 in1021.0 mb 0.00 in0.0 mm 0.00 in0.0 mm 0.00 in0.0 mm
05:55 AM 40.1°F4.5°C 37.4°F3.0°C 87% 1.6 mph SE2.6 kmh SE 3.8 mph6.1 kmh 30.15 in1021.0 mb 0.00 in0.0 mm 0.00 in0.0 mm 0.00 in0.0 mm
06:00 AM 40.1°F4.5°C 37.4°F3.0°C 87% 1.6 mph ESE2.6 kmh ESE 5.4 mph8.7 kmh 30.15 in1021.0 mb 0.00 in0.0 mm 0.00 in0.0 mm 0.00 in0.0 mm
06:05 AM 40.1°F4.5°C 37.4°F3.0°C 87% 2.0 mph ESE3.2 kmh ESE 5.4 mph8.7 kmh 30.15 in1021.0 mb 0.00 in0.0 mm 0.00 in0.0 mm 0.00 in0.0 mm
06:10 AM 40.1°F4.5°C 37.4°F3.0°C 87% 1.6 mph SE2.6 kmh SE 3.4 mph5.5 kmh 30.15 in1021.0 mb 0.00 in0.0 mm 0.00 in0.0 mm 0.00 in0.0 mm
06:15 AM 40.1°F4.5°C 37.4°F3.0°C 87% 1.6 mph SE2.6 kmh SE 4.0 mph6.4 kmh 30.15 in1021.0 mb 0.00 in0.0 mm 0.00 in0.0 mm 0.00 in0.0 mm
06:20 AM 39.9°F4.4°C 37.4°F3.0°C 87% 1.5 mph SE2.4 kmh SE 4.0 mph6.4 kmh 30.15 in1021.0 mb 0.00 in0.0 mm 0.00 in0.0 mm 0.00 in0.0 mm
06:25 AM 39.7°F4.3°C 35.6°F2.0°C 87% 1.2 mph SE1.9 kmh SE 2.7 mph4.3 kmh 30.15 in1021.0 mb 0.00 in0.0 mm 0.00 in0.0 mm 0.00 in0.0 mm
06:30 AM 39.7°F4.3°C 35.6°F2.0°C 87% 1.4 mph E2.3 kmh E 3.4 mph5.5 kmh 30.15 in1021.0 mb 0.00 in0.0 mm 0.00 in0.0 mm 0.00 in0.0 mm
06:35 AM 39.9°F4.4°C 37.4°F3.0°C 87% 1.6 mph SE2.6 kmh SE 4.5 mph7.2 kmh 30.15 in1021.0 mb 0.00 in0.0 mm 0.00 in0.0 mm 0.00 in0.0 mm
06:40 AM 39.9°F4.4°C 37.4°F3.0°C 87% 1.3 mph SE2.1 kmh SE 4.5 mph7.2 kmh 30.15 in1021.0 mb 0.00 in0.0 mm 0.00 in0.0 mm 0.00 in0.0 mm
06:45 AM 39.9°F4.4°C 37.4°F3.0°C 87% 1.5 mph SSE2.4 kmh SSE 4.0 mph6.4 kmh 30.15 in1021.0 mb 0.00 in0.0 mm 0.00 in0.0 mm 0.00 in0.0 mm
06:50 AM 39.9°F4.4°C 35.6°F2.0°C 86% 1.8 mph W2.9 kmh W 4.0 mph6.4 kmh 30.15 in1021.0 mb 0.00 in0.0 mm 0.00 in0.0 mm 0.00 in0.0 mm
06:55 AM 39.7°F4.3°C 35.6°F2.0°C 87% 1.6 mph N2.6 kmh N 3.6 mph5.8 kmh 30.15 in1021.0 mb 0.00 in0.0 mm 0.00 in0.0 mm 0.00 in0.0 mm
07:00 AM 39.7°F4.3°C 35.6°F2.0°C 86% 1.6 mph NNE2.6 kmh NNE 3.6 mph5.8 kmh 30.15 in1021.0 mb 0.00 in0.0 mm 0.00 in0.0 mm 0.00 in0.0 mm
07:05 AM 39.7°F4.3°C 35.6°F2.0°C 86% 1.8 mph ENE2.9 kmh ENE 4.0 mph6.4 kmh 30.15 in1021.0 mb 0.00 in0.0 mm 0.00 in0.0 mm 0.00 in0.0 mm
07:10 AM 39.9°F4.4°C 35.6°F2.0°C 86% 2.0 mph NE3.2 kmh NE 4.7 mph7.6 kmh 30.15 in1021.0 mb 0.00 in0.0 mm 0.00 in0.0 mm 0.00 in0.0 mm
07:15 AM 39.9°F4.4°C 35.6°F2.0°C 86% 2.0 mph NE3.2 kmh NE 4.7 mph7.6 kmh 30.15 in1021.0 mb 0.00 in0.0 mm 0.00 in0.0 mm 0.00 in0.0 mm
07:20 AM 39.9°F4.4°C 35.6°F2.0°C 86% 3.1 mph E5.0 kmh E 7.6 mph12.2 kmh 30.15 in1021.0 mb 0.00 in0.0 mm 0.00 in0.0 mm 0.00 in0.0 mm
07:25 AM 39.9°F4.4°C 35.6°F2.0°C 86% 3.1 mph E5.0 kmh E 7.6 mph12.2 kmh 30.15 in1021.0 mb 0.00 in0.0 mm 0.00 in0.0 mm 0.00 in0.0 mm
07:30 AM 40.1°F4.5°C 35.6°F2.0°C 86% 3.4 mph E5.5 kmh E 7.6 mph12.2 kmh 30.15 in1021.0 mb 0.00 in0.0 mm 0.00 in0.0 mm 0.00 in0.0 mm
07:35 AM 40.1°F4.5°C 35.6°F2.0°C 85% 3.5 mph E5.6 kmh E 8.1 mph13.0 kmh 30.15 in1021.0 mb 0.00 in0.0 mm 0.00 in0.0 mm 0.00 in0.0 mm
07:40 AM 40.1°F4.5°C 35.6°F2.0°C 85% 3.3 mph NE5.3 kmh NE 8.1 mph13.0 kmh 30.15 in1021.0 mb 0.00 in0.0 mm 0.00 in0.0 mm 0.00 in0.0 mm
07:45 AM 40.1°F4.5°C 35.6°F2.0°C 85% 3.0 mph E4.8 kmh E 5.6 mph9.0 kmh 30.15 in1021.0 mb 0.00 in0.0 mm 0.00 in0.0 mm 0.00 in0.0 mm
07:50 AM 40.1°F4.5°C 35.6°F2.0°C 85% 3.3 mph E5.3 kmh E 7.4 mph11.9 kmh 30.15 in1021.0 mb 0.00 in0.0 mm 0.00 in0.0 mm 0.00 in0.0 mm
07:55 AM 40.1°F4.5°C 35.6°F2.0°C 85% 3.1 mph SE5.0 kmh SE 7.4 mph11.9 kmh 30.15 in1021.0 mb 0.00 in0.0 mm 0.00 in0.0 mm 0.00 in0.0 mm
08:00 AM 40.1°F4.5°C 35.6°F2.0°C 85% 2.9 mph ESE4.7 kmh ESE 6.0 mph9.7 kmh 30.15 in1021.0 mb 0.00 in0.0 mm 0.00 in0.0 mm 0.00 in0.0 mm
08:05 AM 40.1°F4.5°C 35.6°F2.0°C 86% 2.8 mph ESE4.5 kmh ESE 6.0 mph9.7 kmh 30.15 in1021.0 mb 0.00 in0.0 mm 0.00 in0.0 mm 0.00 in0.0 mm
08:10 AM 40.1°F4.5°C 35.6°F2.0°C 86% 2.3 mph SE3.7 kmh SE 4.3 mph6.9 kmh 30.15 in1021.0 mb 0.00 in0.0 mm 0.00 in0.0 mm 0.00 in0.0 mm
08:15 AM 40.1°F4.5°C 35.6°F2.0°C 86% 2.5 mph SE4.0 kmh SE 6.3 mph10.1 kmh 30.15 in1021.0 mb 0.00 in0.0 mm 0.00 in0.0 mm 0.00 in0.0 mm
08:20 AM 40.1°F4.5°C 35.6°F2.0°C 86% 2.7 mph E4.3 kmh E 6.3 mph10.1 kmh 30.15 in1021.0 mb 0.00 in0.0 mm 0.00 in0.0 mm 0.00 in0.0 mm
08:25 AM 40.1°F4.5°C 35.6°F2.0°C 86% 2.7 mph E4.3 kmh E 5.4 mph8.7 kmh 30.15 in1021.0 mb 0.00 in0.0 mm 0.00 in0.0 mm 0.00 in0.0 mm
08:30 AM 40.1°F4.5°C 35.6°F2.0°C 86% 1.8 mph ESE2.9 kmh ESE 4.7 mph7.6 kmh 30.15 in1021.0 mb 0.00 in0.0 mm 0.00 in0.0 mm 0.00 in0.0 mm
08:35 AM 40.1°F4.5°C 35.6°F2.0°C 86% 1.6 mph SE2.6 kmh SE 3.4 mph5.5 kmh 30.15 in1021.0 mb 0.00 in0.0 mm 0.00 in0.0 mm 0.00 in0.0 mm
08:40 AM 40.1°F4.5°C 35.6°F2.0°C 86% 1.7 mph SE2.7 kmh SE 3.1 mph5.0 kmh 30.15 in1021.0 mb 0.00 in0.0 mm 0.00 in0.0 mm 0.00 in0.0 mm
08:45 AM 40.1°F4.5°C 35.6°F2.0°C 86% 1.9 mph ESE3.1 kmh ESE 2.9 mph4.7 kmh 30.15 in1021.0 mb 0.00 in0.0 mm 0.00 in0.0 mm 0.00 in0.0 mm
08:50 AM 40.3°F4.6°C 35.6°F2.0°C 86% 1.4 mph ESE2.3 kmh ESE 2.5 mph4.0 kmh 30.15 in1021.0 mb 0.00 in0.0 mm 0.00 in0.0 mm 0.00 in0.0 mm
08:55 AM 40.1°F4.5°C 35.6°F2.0°C 86% 1.1 mph SE1.8 kmh SE 3.4 mph5.5 kmh 30.15 in1021.0 mb 0.00 in0.0 mm 0.00 in0.0 mm 0.00 in0.0 mm
09:00 AM 40.3°F4.6°C 35.6°F2.0°C 86% 1.1 mph SE1.8 kmh SE 3.4 mph5.5 kmh 30.15 in1021.0 mb 0.00 in0.0 mm 0.00 in0.0 mm 0.00 in0.0 mm
09:05 AM 40.3°F4.6°C 35.6°F2.0°C 86% 1.5 mph E2.4 kmh E 3.4 mph5.5 kmh 30.15 in1021.0 mb 0.00 in0.0 mm 0.00 in0.0 mm 0.00 in0.0 mm
09:10 AM 40.3°F4.6°C 37.4°F3.0°C 87% 1.6 mph E2.6 kmh E 3.4 mph5.5 kmh 30.15 in1021.0 mb 0.00 in0.0 mm 0.00 in0.0 mm 0.00 in0.0 mm
09:15 AM 40.3°F4.6°C 37.4°F3.0°C 87% 1.1 mph SE1.8 kmh SE 2.5 mph4.0 kmh 30.15 in1021.0 mb 0.00 in0.0 mm 0.00 in0.0 mm 0.00 in0.0 mm
09:20 AM 40.5°F4.7°C 37.4°F3.0°C 86% 1.6 mph NE2.6 kmh NE 5.4 mph8.7 kmh 30.15 in1021.0 mb 0.00 in0.0 mm 0.00 in0.0 mm 0.00 in0.0 mm
09:25 AM 40.5°F4.7°C 37.4°F3.0°C 86% 1.8 mph ENE2.9 kmh ENE 5.4 mph8.7 kmh 30.18 in1022.0 mb 0.00 in0.0 mm 0.00 in0.0 mm 0.00 in0.0 mm
09:30 AM 40.5°F4.7°C 37.4°F3.0°C 86% 0.6 mph ESE1.0 kmh ESE 1.3 mph2.1 kmh 30.18 in1022.0 mb 0.00 in0.0 mm 0.00 in0.0 mm 0.00 in0.0 mm
09:35 AM 40.5°F4.7°C 37.4°F3.0°C 86% 0.7 mph SE1.1 kmh SE 2.5 mph4.0 kmh 30.18 in1022.0 mb 0.00 in0.0 mm 0.00 in0.0 mm 0.00 in0.0 mm
09:40 AM 40.5°F4.7°C 37.4°F3.0°C 86% 1.3 mph SE2.1 kmh SE 3.1 mph5.0 kmh 30.18 in1022.0 mb 0.00 in0.0 mm 0.00 in0.0 mm 0.00 in0.0 mm
09:45 AM 40.5°F4.7°C 37.4°F3.0°C 86% 2.0 mph SE3.2 kmh SE 3.8 mph6.1 kmh 30.18 in1022.0 mb 0.00 in0.0 mm 0.00 in0.0 mm 0.00 in0.0 mm
09:50 AM 40.5°F4.7°C 37.4°F3.0°C 86% 1.9 mph E3.1 kmh E 4.7 mph7.6 kmh 30.18 in1022.0 mb 0.00 in0.0 mm 0.00 in0.0 mm 0.00 in0.0 mm
09:55 AM 40.6°F4.8°C 37.4°F3.0°C 86% 2.6 mph ESE4.2 kmh ESE 7.2 mph11.6 kmh 30.15 in1021.0 mb 0.00 in0.0 mm 0.00 in0.0 mm 0.00 in0.0 mm
10:00 AM 40.6°F4.8°C 37.4°F3.0°C 86% 2.5 mph ESE4.0 kmh ESE 7.2 mph11.6 kmh 30.15 in1021.0 mb 0.00 in0.0 mm 0.00 in0.0 mm 0.00 in0.0 mm
10:05 AM 40.6°F4.8°C 37.4°F3.0°C 86% 2.6 mph ESE4.2 kmh ESE 5.8 mph9.3 kmh 30.15 in1021.0 mb 0.00 in0.0 mm 0.00 in0.0 mm 0.00 in0.0 mm
10:10 AM 40.6°F4.8°C 37.4°F3.0°C 85% 3.7 mph SE6.0 kmh SE 5.8 mph9.3 kmh 30.15 in1021.0 mb 0.00 in0.0 mm 0.00 in0.0 mm 0.00 in0.0 mm
10:15 AM 40.8°F4.9°C 37.4°F3.0°C 85% 3.7 mph SE6.0 kmh SE 5.8 mph9.3 kmh 30.15 in1021.0 mb 0.00 in0.0 mm 0.00 in0.0 mm 0.00 in0.0 mm
10:20 AM 40.8°F4.9°C 37.4°F3.0°C 85% 3.4 mph ESE5.5 kmh ESE 4.9 mph7.9 kmh 30.15 in1021.0 mb 0.00 in0.0 mm 0.00 in0.0 mm 0.00 in0.0 mm
10:25 AM 40.8°F4.9°C 37.4°F3.0°C 85% 2.5 mph E4.0 kmh E 4.9 mph7.9 kmh 30.18 in1022.0 mb 0.00 in0.0 mm 0.00 in0.0 mm 0.00 in0.0 mm
10:30 AM 40.8°F4.9°C 37.4°F3.0°C 85% 2.9 mph E4.7 kmh E 5.8 mph9.3 kmh 30.18 in1022.0 mb 0.00 in0.0 mm 0.00 in0.0 mm 0.00 in0.0 mm
10:35 AM 40.8°F4.9°C 37.4°F3.0°C 85% 3.5 mph SE5.6 kmh SE 5.8 mph9.3 kmh 30.18 in1022.0 mb 0.00 in0.0 mm 0.00 in0.0 mm 0.00 in0.0 mm
10:40 AM 40.8°F4.9°C 37.4°F3.0°C 85% 3.1 mph SE5.0 kmh SE 5.6 mph9.0 kmh 30.18 in1022.0 mb 0.00 in0.0 mm 0.00 in0.0 mm 0.00 in0.0 mm
10:45 AM 40.8°F4.9°C 35.6°F2.0°C 84% 2.3 mph E3.7 kmh E 5.4 mph8.7 kmh 30.18 in1022.0 mb 0.00 in0.0 mm 0.00 in0.0 mm 0.00 in0.0 mm
10:50 AM 41.0°F5.0°C 35.6°F2.0°C 84% 2.8 mph E4.5 kmh E 9.8 mph15.8 kmh 30.18 in1022.0 mb 0.00 in0.0 mm 0.00 in0.0 mm 0.00 in0.0 mm
10:55 AM 41.0°F5.0°C 35.6°F2.0°C 84% 2.8 mph ESE4.5 kmh ESE 9.8 mph15.8 kmh 30.18 in1022.0 mb 0.00 in0.0 mm 0.00 in0.0 mm 0.00 in0.0 mm
11:00 AM 41.0°F5.0°C 35.6°F2.0°C 84% 2.1 mph E3.4 kmh E 4.9 mph7.9 kmh 30.18 in1022.0 mb 0.00 in0.0 mm 0.00 in0.0 mm 0.00 in0.0 mm
11:05 AM 41.0°F5.0°C 35.6°F2.0°C 84% 2.1 mph E3.4 kmh E 2.7 mph4.3 kmh 30.18 in1022.0 mb 0.00 in0.0 mm 0.00 in0.0 mm 0.00 in0.0 mm
11:10 AM 41.0°F5.0°C 35.6°F2.0°C 84% 2.0 mph SE3.2 kmh SE 4.0 mph6.4 kmh 30.18 in1022.0 mb 0.00 in0.0 mm 0.00 in0.0 mm 0.00 in0.0 mm
11:15 AM 41.0°F5.0°C 35.6°F2.0°C 84% 2.5 mph SSE4.0 kmh SSE 5.6 mph9.0 kmh 30.18 in1022.0 mb 0.00 in0.0 mm 0.00 in0.0 mm 0.00 in0.0 mm
11:20 AM 41.0°F5.0°C 35.6°F2.0°C 84% 3.1 mph E5.0 kmh E 6.5 mph10.5 kmh 30.18 in1022.0 mb 0.00 in0.0 mm 0.00 in0.0 mm 0.00 in0.0 mm
11:25 AM 41.0°F5.0°C 35.6°F2.0°C 83% 3.2 mph E5.1 kmh E 6.5 mph10.5 kmh 30.18 in1022.0 mb 0.00 in0.0 mm 0.00 in0.0 mm 0.00 in0.0 mm
11:30 AM 41.0°F5.0°C 35.6°F2.0°C 83% 3.4 mph ESE5.5 kmh ESE 6.0 mph9.7 kmh 30.18 in1022.0 mb 0.00 in0.0 mm 0.00 in0.0 mm 0.00 in0.0 mm
11:35 AM 41.0°F5.0°C 35.6°F2.0°C 83% 3.5 mph SE5.6 kmh SE 6.9 mph11.1 kmh 30.18 in1022.0 mb 0.00 in0.0 mm 0.00 in0.0 mm 0.00 in0.0 mm
11:40 AM 41.0°F5.0°C 35.6°F2.0°C 83% 3.3 mph ESE5.3 kmh ESE 6.9 mph11.1 kmh 30.15 in1021.0 mb 0.00 in0.0 mm 0.00 in0.0 mm 0.00 in0.0 mm
11:45 AM 40.8°F4.9°C 35.6°F2.0°C 82% 2.8 mph E4.5 kmh E 5.8 mph9.3 kmh 30.15 in1021.0 mb 0.00 in0.0 mm 0.00 in0.0 mm 0.00 in0.0 mm
11:50 AM 41.0°F5.0°C 35.6°F2.0°C 82% 3.1 mph ENE5.0 kmh ENE 8.1 mph13.0 kmh 30.15 in1021.0 mb 0.00 in0.0 mm 0.00 in0.0 mm 0.00 in0.0 mm
11:55 AM 41.0°F5.0°C 35.6°F2.0°C 82% 3.6 mph SE5.8 kmh SE 8.1 mph13.0 kmh 30.15 in1021.0 mb 0.00 in0.0 mm 0.00 in0.0 mm 0.00 in0.0 mm
12:00 PM 41.0°F5.0°C 35.6°F2.0°C 83% 2.6 mph S4.2 kmh S 6.0 mph9.7 kmh 30.15 in1021.0 mb 0.00 in0.0 mm 0.00 in0.0 mm 0.00 in0.0 mm
12:05 PM 41.0°F5.0°C 35.6°F2.0°C 83% 3.3 mph SE5.3 kmh SE 7.4 mph11.9 kmh 30.15 in1021.0 mb 0.00 in0.0 mm 0.00 in0.0 mm 0.00 in0.0 mm
12:10 PM 41.0°F5.0°C 35.6°F2.0°C 83% 3.2 mph SE5.1 kmh SE 7.4 mph11.9 kmh 30.15 in1021.0 mb 0.00 in0.0 mm 0.00 in0.0 mm 0.00 in0.0 mm
12:15 PM 41.0°F5.0°C 35.6°F2.0°C 83% 2.1 mph SE3.4 kmh SE 4.7 mph7.6 kmh 30.15 in1021.0 mb 0.00 in0.0 mm 0.00 in0.0 mm 0.00 in0.0 mm
12:20 PM 41.0°F5.0°C 35.6°F2.0°C 83% 2.9 mph SE4.7 kmh SE 6.5 mph10.5 kmh 30.15 in1021.0 mb 0.00 in0.0 mm 0.00 in0.0 mm 0.00 in0.0 mm
12:25 PM 40.8°F4.9°C 35.6°F2.0°C 83% 2.9 mph SE4.7 kmh SE 6.5 mph10.5 kmh 30.15 in1021.0 mb 0.00 in0.0 mm 0.00 in0.0 mm 0.00 in0.0 mm
12:30 PM 41.0°F5.0°C 35.6°F2.0°C 83% 1.9 mph ENE3.1 kmh ENE 3.1 mph5.0 kmh 30.15 in1021.0 mb 0.00 in0.0 mm 0.00 in0.0 mm 0.00 in0.0 mm
12:35 PM 41.0°F5.0°C 35.6°F2.0°C 83% 2.0 mph NE3.2 kmh NE 4.9 mph7.9 kmh 30.15 in1021.0 mb 0.00 in0.0 mm 0.00 in0.0 mm 0.00 in0.0 mm
12:40 PM 41.0°F5.0°C 35.6°F2.0°C 83% 2.3 mph ENE3.7 kmh ENE 5.4 mph8.7 kmh 30.15 in1021.0 mb 0.00 in0.0 mm 0.00 in0.0 mm 0.00 in0.0 mm
12:45 PM 41.0°F5.0°C 35.6°F2.0°C 83% 2.1 mph E3.4 kmh E 5.4 mph8.7 kmh 30.15 in1021.0 mb 0.00 in0.0 mm 0.00 in0.0 mm 0.00 in0.0 mm
12:50 PM 41.0°F5.0°C 35.6°F2.0°C 82% 2.5 mph E4.0 kmh E 5.8 mph9.3 kmh 30.15 in1021.0 mb 0.00 in0.0 mm 0.00 in0.0 mm 0.00 in0.0 mm
12:55 PM 41.2°F5.1°C 35.6°F2.0°C 82% 3.1 mph E5.0 kmh E 5.8 mph9.3 kmh 30.15 in1021.0 mb 0.00 in0.0 mm 0.00 in0.0 mm 0.00 in0.0 mm
01:00 PM 41.2°F5.1°C 35.6°F2.0°C 82% 3.7 mph SE6.0 kmh SE 7.4 mph11.9 kmh 30.15 in1021.0 mb 0.00 in0.0 mm 0.00 in0.0 mm 0.00 in0.0 mm
01:05 PM 41.2°F5.1°C 35.6°F2.0°C 82% 3.4 mph ESE5.5 kmh ESE 7.4 mph11.9 kmh 30.15 in1021.0 mb 0.00 in0.0 mm 0.00 in0.0 mm 0.00 in0.0 mm
01:10 PM 41.2°F5.1°C 35.6°F2.0°C 82% 2.2 mph ESE3.5 kmh ESE 5.4 mph8.7 kmh 30.15 in1021.0 mb 0.00 in0.0 mm 0.00 in0.0 mm 0.00 in0.0 mm
01:15 PM 41.2°F5.1°C 35.6°F2.0°C 82% 1.9 mph SE3.1 kmh SE 3.6 mph5.8 kmh 30.15 in1021.0 mb 0.00 in0.0 mm 0.00 in0.0 mm 0.00 in0.0 mm
01:20 PM 41.2°F5.1°C 35.6°F2.0°C 82% 1.9 mph SE3.1 kmh SE 3.6 mph5.8 kmh 30.15 in1021.0 mb 0.00 in0.0 mm 0.00 in0.0 mm 0.00 in0.0 mm
01:25 PM 41.2°F5.1°C 35.6°F2.0°C 82% 2.4 mph SE3.9 kmh SE 6.0 mph9.7 kmh 30.15 in1021.0 mb 0.00 in0.0 mm 0.00 in0.0 mm 0.00 in0.0 mm
01:30 PM 41.2°F5.1°C 35.6°F2.0°C 82% 2.3 mph SE3.7 kmh SE 6.0 mph9.7 kmh 30.15 in1021.0 mb 0.00 in0.0 mm 0.00 in0.0 mm 0.00 in0.0 mm
01:35 PM 41.2°F5.1°C 35.6°F2.0°C 82% 1.5 mph ESE2.4 kmh ESE 4.3 mph6.9 kmh 30.15 in1021.0 mb 0.00 in0.0 mm 0.00 in0.0 mm 0.00 in0.0 mm
01:40 PM 41.2°F5.1°C 35.6°F2.0°C 82% 3.0 mph NE4.8 kmh NE 7.6 mph12.2 kmh 30.15 in1021.0 mb 0.00 in0.0 mm 0.00 in0.0 mm 0.00 in0.0 mm
01:45 PM 41.2°F5.1°C 35.6°F2.0°C 82% 3.2 mph ENE5.1 kmh ENE 7.6 mph12.2 kmh 30.15 in1021.0 mb 0.00 in0.0 mm 0.00 in0.0 mm 0.00 in0.0 mm
01:50 PM 41.2°F5.1°C 35.6°F2.0°C 82% 2.5 mph E4.0 kmh E 5.4 mph8.7 kmh 30.15 in1021.0 mb 0.00 in0.0 mm 0.00 in0.0 mm 0.00 in0.0 mm
01:55 PM 41.2°F5.1°C 35.6°F2.0°C 82% 2.6 mph ESE4.2 kmh ESE 4.9 mph7.9 kmh 30.15 in1021.0 mb 0.00 in0.0 mm 0.00 in0.0 mm 0.00 in0.0 mm
02:00 PM 41.2°F5.1°C 35.6°F2.0°C 82% 2.2 mph ESE3.5 kmh ESE 4.9 mph7.9 kmh 30.15 in1021.0 mb 0.00 in0.0 mm 0.00 in0.0 mm 0.00 in0.0 mm
02:05 PM 41.2°F5.1°C 35.6°F2.0°C 82% 1.9 mph E3.1 kmh E 3.1 mph5.0 kmh 30.15 in1021.0 mb 0.00 in0.0 mm 0.00 in0.0 mm 0.00 in0.0 mm
02:10 PM 41.2°F5.1°C 35.6°F2.0°C 82% 1.8 mph E2.9 kmh E 3.1 mph5.0 kmh 30.12 in1020.0 mb 0.00 in0.0 mm 0.00 in0.0 mm 0.00 in0.0 mm
02:15 PM 41.2°F5.1°C 35.6°F2.0°C 82% 2.6 mph ESE4.2 kmh ESE 6.0 mph9.7 kmh 30.12 in1020.0 mb 0.00 in0.0 mm 0.00 in0.0 mm 0.00 in0.0 mm
02:20 PM 41.2°F5.1°C 35.6°F2.0°C 82% 3.0 mph E4.8 kmh E 6.0 mph9.7 kmh 30.12 in1020.0 mb 0.00 in0.0 mm 0.00 in0.0 mm 0.00 in0.0 mm
02:25 PM 41.2°F5.1°C 35.6°F2.0°C 82% 2.1 mph NE3.4 kmh NE 5.4 mph8.7 kmh 30.12 in1020.0 mb 0.00 in0.0 mm 0.00 in0.0 mm 0.00 in0.0 mm
02:30 PM 41.4°F5.2°C 37.4°F3.0°C 82% 2.3 mph E3.7 kmh E 4.0 mph6.4 kmh 30.12 in1020.0 mb 0.00 in0.0 mm 0.00 in0.0 mm 0.00 in0.0 mm
02:35 PM 41.4°F5.2°C 37.4°F3.0°C 82% 2.3 mph ESE3.7 kmh ESE 4.0 mph6.4 kmh 30.12 in1020.0 mb 0.00 in0.0 mm 0.00 in0.0 mm 0.00 in0.0 mm
02:40 PM 41.4°F5.2°C 37.4°F3.0°C 82% 2.3 mph SSE3.7 kmh SSE 6.5 mph10.5 kmh 30.12 in1020.0 mb 0.00 in0.0 mm 0.00 in0.0 mm 0.00 in0.0 mm
02:45 PM 41.4°F5.2°C 37.4°F3.0°C 82% 2.2 mph WSW3.5 kmh WSW 6.5 mph10.5 kmh 30.12 in1020.0 mb 0.00 in0.0 mm 0.00 in0.0 mm 0.00 in0.0 mm
02:50 PM 41.4°F5.2°C 37.4°F3.0°C 82% 1.6 mph E2.6 kmh E 2.9 mph4.7 kmh 30.12 in1020.0 mb 0.00 in0.0 mm 0.00 in0.0 mm 0.00 in0.0 mm
02:55 PM 41.2°F5.1°C 35.6°F2.0°C 82% 1.5 mph ESE2.4 kmh ESE 2.9 mph4.7 kmh 30.12 in1020.0 mb 0.00 in0.0 mm 0.00 in0.0 mm 0.00 in0.0 mm
03:00 PM 41.2°F5.1°C 35.6°F2.0°C 82% 1.6 mph SE2.6 kmh SE 2.9 mph4.7 kmh 30.12 in1020.0 mb 0.00 in0.0 mm 0.00 in0.0 mm 0.00 in0.0 mm
03:05 PM 41.2°F5.1°C 35.6°F2.0°C 83% 1.8 mph E2.9 kmh E 3.6 mph5.8 kmh 30.12 in1020.0 mb 0.00 in0.0 mm 0.00 in0.0 mm 0.00 in0.0 mm
03:10 PM 41.2°F5.1°C 35.6°F2.0°C 83% 1.8 mph E2.9 kmh E 3.6 mph5.8 kmh 30.12 in1020.0 mb 0.00 in0.0 mm 0.00 in0.0 mm 0.00 in0.0 mm
03:15 PM 41.2°F5.1°C 35.6°F2.0°C 83% 1.8 mph ESE2.9 kmh ESE 3.4 mph5.5 kmh 30.12 in1020.0 mb 0.00 in0.0 mm 0.00 in0.0 mm 0.00 in0.0 mm
03:20 PM 41.2°F5.1°C 35.6°F2.0°C 83% 2.3 mph S3.7 kmh S 6.5 mph10.5 kmh 30.12 in1020.0 mb 0.00 in0.0 mm 0.00 in0.0 mm 0.00 in0.0 mm
03:25 PM 41.2°F5.1°C 35.6°F2.0°C 83% 2.1 mph SE3.4 kmh SE 6.5 mph10.5 kmh 30.12 in1020.0 mb 0.00 in0.0 mm 0.00 in0.0 mm 0.00 in0.0 mm
03:30 PM 41.2°F5.1°C 35.6°F2.0°C 83% 2.3 mph ESE3.7 kmh ESE 6.3 mph10.1 kmh 30.12 in1020.0 mb 0.00 in0.0 mm 0.00 in0.0 mm 0.00 in0.0 mm
03:35 PM 41.2°F5.1°C 35.6°F2.0°C 83% 2.4 mph SE3.9 kmh SE 6.3 mph10.1 kmh 30.12 in1020.0 mb 0.00 in0.0 mm 0.00 in0.0 mm 0.00 in0.0 mm
03:40 PM 41.2°F5.1°C 35.6°F2.0°C 83% 2.9 mph ESE4.7 kmh ESE 7.6 mph12.2 kmh 30.12 in1020.0 mb 0.00 in0.0 mm 0.00 in0.0 mm 0.00 in0.0 mm
03:45 PM 41.2°F5.1°C 35.6°F2.0°C 83% 2.8 mph E4.5 kmh E 7.6 mph12.2 kmh 30.12 in1020.0 mb 0.00 in0.0 mm 0.00 in0.0 mm 0.00 in0.0 mm
03:50 PM 41.0°F5.0°C 35.6°F2.0°C 83% 2.5 mph ENE4.0 kmh ENE 4.3 mph6.9 kmh 30.12 in1020.0 mb 0.00 in0.0 mm 0.00 in0.0 mm 0.00 in0.0 mm
03:55 PM 41.0°F5.0°C 35.6°F2.0°C 83% 3.2 mph E5.1 kmh E 5.4 mph8.7 kmh 30.12 in1020.0 mb 0.00 in0.0 mm 0.00 in0.0 mm 0.00 in0.0 mm
04:00 PM 41.0°F5.0°C 35.6°F2.0°C 83% 3.3 mph E5.3 kmh E 5.4 mph8.7 kmh 30.12 in1020.0 mb 0.00 in0.0 mm 0.00 in0.0 mm 0.00 in0.0 mm
04:05 PM 41.0°F5.0°C 35.6°F2.0°C 83% 2.7 mph E4.3 kmh E 5.4 mph8.7 kmh 30.12 in1020.0 mb 0.00 in0.0 mm 0.00 in0.0 mm 0.00 in0.0 mm
04:10 PM 41.0°F5.0°C 35.6°F2.0°C 83% 2.8 mph E4.5 kmh E 5.4 mph8.7 kmh 30.12 in1020.0 mb 0.00 in0.0 mm 0.00 in0.0 mm 0.00 in0.0 mm
04:15 PM 41.0°F5.0°C 35.6°F2.0°C 83% 3.0 mph SW4.8 kmh SW 4.9 mph7.9 kmh 30.12 in1020.0 mb 0.00 in0.0 mm 0.00 in0.0 mm 0.00 in0.0 mm
04:20 PM 41.0°F5.0°C 35.6°F2.0°C 83% 2.5 mph SW4.0 kmh SW 4.9 mph7.9 kmh 30.12 in1020.0 mb 0.00 in0.0 mm 0.00 in0.0 mm 0.00 in0.0 mm
04:25 PM 41.0°F5.0°C 35.6°F2.0°C 83% 2.3 mph ESE3.7 kmh ESE 4.7 mph7.6 kmh 30.15 in1021.0 mb 0.00 in0.0 mm 0.00 in0.0 mm 0.00 in0.0 mm
04:30 PM 41.0°F5.0°C 35.6°F2.0°C 83% 2.8 mph ESE4.5 kmh ESE 4.9 mph7.9 kmh 30.15 in1021.0 mb 0.00 in0.0 mm 0.00 in0.0 mm 0.00 in0.0 mm
04:35 PM 41.0°F5.0°C 35.6°F2.0°C 83% 2.7 mph ESE4.3 kmh ESE 4.9 mph7.9 kmh 30.15 in1021.0 mb 0.00 in0.0 mm 0.00 in0.0 mm 0.00 in0.0 mm
04:40 PM 41.0°F5.0°C 35.6°F2.0°C 83% 2.7 mph ESE4.3 kmh ESE 5.6 mph9.0 kmh 30.15 in1021.0 mb 0.00 in0.0 mm 0.00 in0.0 mm 0.00 in0.0 mm
04:45 PM 40.8°F4.9°C 35.6°F2.0°C 83% 2.3 mph ESE3.7 kmh ESE 5.6 mph9.0 kmh 30.15 in1021.0 mb 0.00 in0.0 mm 0.00 in0.0 mm 0.00 in0.0 mm
04:50 PM 40.8°F4.9°C 35.6°F2.0°C 83% 2.4 mph ENE3.9 kmh ENE 5.8 mph9.3 kmh 30.15 in1021.0 mb 0.00 in0.0 mm 0.00 in0.0 mm 0.00 in0.0 mm
04:55 PM 41.0°F5.0°C 35.6°F2.0°C 83% 3.5 mph E5.6 kmh E 8.1 mph13.0 kmh 30.15 in1021.0 mb 0.00 in0.0 mm 0.00 in0.0 mm 0.00 in0.0 mm
05:00 PM 40.8°F4.9°C 35.6°F2.0°C 83% 3.9 mph E6.3 kmh E 8.1 mph13.0 kmh 30.15 in1021.0 mb 0.00 in0.0 mm 0.00 in0.0 mm 0.00 in0.0 mm
05:05 PM 41.0°F5.0°C 35.6°F2.0°C 83% 3.3 mph E5.3 kmh E 7.2 mph11.6 kmh 30.15 in1021.0 mb 0.00 in0.0 mm 0.00 in0.0 mm 0.00 in0.0 mm
05:10 PM 41.0°F5.0°C 35.6°F2.0°C 83% 2.9 mph ESE4.7 kmh ESE 4.9 mph7.9 kmh 30.15 in1021.0 mb 0.00 in0.0 mm 0.00 in0.0 mm 0.00 in0.0 mm
05:15 PM 41.0°F5.0°C 35.6°F2.0°C 83% 2.8 mph SE4.5 kmh SE 4.9 mph7.9 kmh 30.15 in1021.0 mb 0.00 in0.0 mm 0.00 in0.0 mm 0.00 in0.0 mm
05:20 PM 41.0°F5.0°C 35.6°F2.0°C 83% 1.9 mph S3.1 kmh S 4.7 mph7.6 kmh 30.15 in1021.0 mb 0.00 in0.0 mm 0.00 in0.0 mm 0.00 in0.0 mm
05:25 PM 41.0°F5.0°C 35.6°F2.0°C 83% 1.8 mph S2.9 kmh S 3.4 mph5.5 kmh 30.15 in1021.0 mb 0.00 in0.0 mm 0.00 in0.0 mm 0.00 in0.0 mm
05:30 PM 41.2°F5.1°C 35.6°F2.0°C 83% 1.9 mph SSE3.1 kmh SSE 3.4 mph5.5 kmh 30.15 in1021.0 mb 0.00 in0.0 mm 0.00 in0.0 mm 0.00 in0.0 mm
05:35 PM 41.0°F5.0°C 35.6°F2.0°C 83% 1.8 mph ESE2.9 kmh ESE 5.8 mph9.3 kmh 30.15 in1021.0 mb 0.00 in0.0 mm 0.00 in0.0 mm 0.00 in0.0 mm
05:40 PM 41.0°F5.0°C 35.6°F2.0°C 83% 1.6 mph E2.6 kmh E 5.8 mph9.3 kmh 30.15 in1021.0 mb 0.00 in0.0 mm 0.00 in0.0 mm 0.00 in0.0 mm
05:45 PM 41.2°F5.1°C 35.6°F2.0°C 83% 1.8 mph SE2.9 kmh SE 4.5 mph7.2 kmh 30.15 in1021.0 mb 0.00 in0.0 mm 0.00 in0.0 mm 0.00 in0.0 mm
05:50 PM 41.0°F5.0°C 35.6°F2.0°C 83% 1.8 mph E2.9 kmh E 4.5 mph7.2 kmh 30.15 in1021.0 mb 0.00 in0.0 mm 0.00 in0.0 mm 0.00 in0.0 mm
05:55 PM 41.0°F5.0°C 35.6°F2.0°C 83% 1.6 mph NE2.6 kmh NE 3.6 mph5.8 kmh 30.15 in1021.0 mb 0.00 in0.0 mm 0.00 in0.0 mm 0.00 in0.0 mm
06:00 PM 41.0°F5.0°C 35.6°F2.0°C 83% 2.1 mph E3.4 kmh E 4.0 mph6.4 kmh 30.15 in1021.0 mb 0.00 in0.0 mm 0.00 in0.0 mm 0.00 in0.0 mm
06:05 PM 41.0°F5.0°C 35.6°F2.0°C 83% 2.0 mph SE3.2 kmh SE 4.0 mph6.4 kmh 30.15 in1021.0 mb 0.00 in0.0 mm 0.00 in0.0 mm 0.00 in0.0 mm
06:10 PM 41.0°F5.0°C 35.6°F2.0°C 83% 1.5 mph SE2.4 kmh SE 2.9 mph4.7 kmh 30.15 in1021.0 mb 0.00 in0.0 mm 0.00 in0.0 mm 0.00 in0.0 mm
06:15 PM 41.0°F5.0°C 35.6°F2.0°C 83% 1.4 mph ESE2.3 kmh ESE 2.7 mph4.3 kmh 30.15 in1021.0 mb 0.00 in0.0 mm 0.00 in0.0 mm 0.00 in0.0 mm
06:20 PM 41.0°F5.0°C 35.6°F2.0°C 83% 2.1 mph E3.4 kmh E 3.6 mph5.8 kmh 30.15 in1021.0 mb 0.00 in0.0 mm 0.00 in0.0 mm 0.00 in0.0 mm
06:25 PM 41.0°F5.0°C 35.6°F2.0°C 83% 2.3 mph E3.7 kmh E 3.6 mph5.8 kmh 30.15 in1021.0 mb 0.00 in0.0 mm 0.00 in0.0 mm 0.00 in0.0 mm
06:30 PM 41.0°F5.0°C 35.6°F2.0°C 83% 1.8 mph E2.9 kmh E 3.1 mph5.0 kmh 30.15 in1021.0 mb 0.00 in0.0 mm 0.00 in0.0 mm 0.00 in0.0 mm
06:35 PM 41.0°F5.0°C 35.6°F2.0°C 83% 2.4 mph ENE3.9 kmh ENE 6.0 mph9.7 kmh 30.15 in1021.0 mb 0.00 in0.0 mm 0.00 in0.0 mm 0.00 in0.0 mm
06:40 PM 41.0°F5.0°C 35.6°F2.0°C 83% 3.2 mph E5.1 kmh E 6.0 mph9.7 kmh 30.15 in1021.0 mb 0.00 in0.0 mm 0.00 in0.0 mm 0.00 in0.0 mm
06:45 PM 41.0°F5.0°C 35.6°F2.0°C 83% 2.5 mph SE4.0 kmh SE 4.3 mph6.9 kmh 30.15 in1021.0 mb 0.00 in0.0 mm 0.00 in0.0 mm 0.00 in0.0 mm
06:50 PM 41.0°F5.0°C 35.6°F2.0°C 83% 1.9 mph ESE3.1 kmh ESE 4.7 mph7.6 kmh 30.15 in1021.0 mb 0.00 in0.0 mm 0.00 in0.0 mm 0.00 in0.0 mm
06:55 PM 41.0°F5.0°C 35.6°F2.0°C 83% 2.3 mph ESE3.7 kmh ESE 4.7 mph7.6 kmh 30.15 in1021.0 mb 0.00 in0.0 mm 0.00 in0.0 mm 0.00 in0.0 mm
07:00 PM 41.0°F5.0°C 35.6°F2.0°C 83% 2.4 mph E3.9 kmh E 3.6 mph5.8 kmh 30.15 in1021.0 mb 0.00 in0.0 mm 0.00 in0.0 mm 0.00 in0.0 mm
07:05 PM 41.0°F5.0°C 35.6°F2.0°C 83% 2.4 mph E3.9 kmh E 3.6 mph5.8 kmh 30.15 in1021.0 mb 0.00 in0.0 mm 0.00 in0.0 mm 0.00 in0.0 mm
07:10 PM 41.0°F5.0°C 35.6°F2.0°C 83% 2.6 mph NNW4.2 kmh NNW 5.8 mph9.3 kmh 30.15 in1021.0 mb 0.00 in0.0 mm 0.00 in0.0 mm 0.00 in0.0 mm
07:15 PM 41.0°F5.0°C 35.6°F2.0°C 83% 2.5 mph W4.0 kmh W 5.8 mph9.3 kmh 30.15 in1021.0 mb 0.00 in0.0 mm 0.00 in0.0 mm 0.00 in0.0 mm
07:20 PM 41.0°F5.0°C 35.6°F2.0°C 83% 2.3 mph S3.7 kmh S 4.7 mph7.6 kmh 30.15 in1021.0 mb 0.00 in0.0 mm 0.00 in0.0 mm 0.00 in0.0 mm
07:25 PM 41.0°F5.0°C 35.6°F2.0°C 83% 2.8 mph E4.5 kmh E 5.4 mph8.7 kmh 30.15 in1021.0 mb 0.00 in0.0 mm 0.00 in0.0 mm 0.00 in0.0 mm
07:30 PM 41.0°F5.0°C 35.6°F2.0°C 83% 2.8 mph SE4.5 kmh SE 5.4 mph8.7 kmh 30.18 in1022.0 mb 0.00 in0.0 mm 0.00 in0.0 mm 0.00 in0.0 mm
07:35 PM 41.0°F5.0°C 35.6°F2.0°C 83% 2.5 mph SSE4.0 kmh SSE 4.7 mph7.6 kmh 30.18 in1022.0 mb 0.00 in0.0 mm 0.00 in0.0 mm 0.00 in0.0 mm
07:40 PM 41.0°F5.0°C 35.6°F2.0°C 83% 2.5 mph SSE4.0 kmh SSE 4.3 mph6.9 kmh 30.18 in1022.0 mb 0.00 in0.0 mm 0.00 in0.0 mm 0.00 in0.0 mm
07:45 PM 41.0°F5.0°C 35.6°F2.0°C 82% 3.5 mph SSE5.6 kmh SSE 6.3 mph10.1 kmh 30.18 in1022.0 mb 0.00 in0.0 mm 0.00 in0.0 mm 0.00 in0.0 mm
07:50 PM 40.8°F4.9°C 35.6°F2.0°C 82% 3.4 mph S5.5 kmh S 6.3 mph10.1 kmh 30.18 in1022.0 mb 0.00 in0.0 mm 0.00 in0.0 mm 0.00 in0.0 mm
07:55 PM 40.8°F4.9°C 35.6°F2.0°C 82% 3.0 mph SSE4.8 kmh SSE 5.6 mph9.0 kmh 30.18 in1022.0 mb 0.00 in0.0 mm 0.00 in0.0 mm 0.00 in0.0 mm
08:00 PM 40.8°F4.9°C 35.6°F2.0°C 82% 3.5 mph SSE5.6 kmh SSE 5.6 mph9.0 kmh 30.18 in1022.0 mb 0.00 in0.0 mm 0.00 in0.0 mm 0.00 in0.0 mm
08:05 PM 40.8°F4.9°C 35.6°F2.0°C 82% 3.1 mph SSE5.0 kmh SSE 4.9 mph7.9 kmh 30.18 in1022.0 mb 0.00 in0.0 mm 0.00 in0.0 mm 0.00 in0.0 mm
08:10 PM 40.8°F4.9°C 35.6°F2.0°C 82% 2.1 mph S3.4 kmh S 3.8 mph6.1 kmh 30.18 in1022.0 mb 0.00 in0.0 mm 0.00 in0.0 mm 0.00 in0.0 mm
08:15 PM 40.6°F4.8°C 35.6°F2.0°C 82% 1.6 mph SE2.6 kmh SE 4.7 mph7.6 kmh 30.18 in1022.0 mb 0.00 in0.0 mm 0.00 in0.0 mm 0.00 in0.0 mm
08:20 PM 40.8°F4.9°C 35.6°F2.0°C 82% 2.0 mph ESE3.2 kmh ESE 4.7 mph7.6 kmh 30.18 in1022.0 mb 0.00 in0.0 mm 0.00 in0.0 mm 0.00 in0.0 mm
08:25 PM 40.6°F4.8°C 35.6°F2.0°C 82% 1.8 mph SE2.9 kmh SE 3.1 mph5.0 kmh 30.18 in1022.0 mb 0.00 in0.0 mm 0.00 in0.0 mm 0.00 in0.0 mm
08:30 PM 40.6°F4.8°C 35.6°F2.0°C 82% 1.4 mph SE2.3 kmh SE 2.9 mph4.7 kmh 30.18 in1022.0 mb 0.00 in0.0 mm 0.00 in0.0 mm 0.00 in0.0 mm
08:35 PM 40.6°F4.8°C 35.6°F2.0°C 82% 0.8 mph SE1.3 kmh SE 2.5 mph4.0 kmh 30.18 in1022.0 mb 0.00 in0.0 mm 0.00 in0.0 mm 0.00 in0.0 mm
08:40 PM 40.6°F4.8°C 35.6°F2.0°C 82% 0.2 mph SE0.3 kmh SE 1.6 mph2.6 kmh 30.18 in1022.0 mb 0.00 in0.0 mm 0.00 in0.0 mm 0.00 in0.0 mm
08:45 PM 40.6°F4.8°C 35.6°F2.0°C 82% 0.7 mph SE1.1 kmh SE 2.7 mph4.3 kmh 30.18 in1022.0 mb 0.00 in0.0 mm 0.00 in0.0 mm 0.00 in0.0 mm
08:50 PM 40.5°F4.7°C 35.6°F2.0°C 82% 0.9 mph SE1.4 kmh SE 2.7 mph4.3 kmh 30.18 in1022.0 mb 0.00 in0.0 mm 0.00 in0.0 mm 0.00 in0.0 mm
08:55 PM 40.6°F4.8°C 35.6°F2.0°C 82% 0.9 mph S1.4 kmh S 2.7 mph4.3 kmh 30.18 in1022.0 mb 0.00 in0.0 mm 0.00 in0.0 mm 0.00 in0.0 mm
09:00 PM 40.6°F4.8°C 35.6°F2.0°C 82% 1.4 mph SSE2.3 kmh SSE 3.1 mph5.0 kmh 30.18 in1022.0 mb 0.00 in0.0 mm 0.00 in0.0 mm 0.00 in0.0 mm
09:05 PM 40.6°F4.8°C 35.6°F2.0°C 82% 1.7 mph S2.7 kmh S 3.1 mph5.0 kmh 30.18 in1022.0 mb 0.00 in0.0 mm 0.00 in0.0 mm 0.00 in0.0 mm
09:10 PM 40.6°F4.8°C 35.6°F2.0°C 83% 1.6 mph S2.6 kmh S 3.1 mph5.0 kmh 30.18 in1022.0 mb 0.00 in0.0 mm 0.00 in0.0 mm 0.00 in0.0 mm
09:15 PM 40.6°F4.8°C 35.6°F2.0°C 83% 1.9 mph SSE3.1 kmh SSE 3.4 mph5.5 kmh 30.18 in1022.0 mb 0.00 in0.0 mm 0.00 in0.0 mm 0.00 in0.0 mm
09:20 PM 40.5°F4.7°C 35.6°F2.0°C 83% 1.2 mph S1.9 kmh S 3.4 mph5.5 kmh 30.18 in1022.0 mb 0.00 in0.0 mm 0.00 in0.0 mm 0.00 in0.0 mm
09:25 PM 40.5°F4.7°C 35.6°F2.0°C 83% 1.0 mph SE1.6 kmh SE 4.9 mph7.9 kmh 30.18 in1022.0 mb 0.00 in0.0 mm 0.00 in0.0 mm 0.00 in0.0 mm
09:30 PM 40.5°F4.7°C 35.6°F2.0°C 83% 1.3 mph SSE2.1 kmh SSE 4.9 mph7.9 kmh 30.18 in1022.0 mb 0.00 in0.0 mm 0.00 in0.0 mm 0.00 in0.0 mm
09:35 PM 40.5°F4.7°C 35.6°F2.0°C 83% 0.9 mph SSE1.4 kmh SSE 2.5 mph4.0 kmh 30.18 in1022.0 mb 0.00 in0.0 mm 0.00 in0.0 mm 0.00 in0.0 mm
09:40 PM 40.5°F4.7°C 35.6°F2.0°C 82% 0.4 mph SE0.6 kmh SE 2.0 mph3.2 kmh 30.18 in1022.0 mb 0.00 in0.0 mm 0.00 in0.0 mm 0.00 in0.0 mm
09:45 PM 40.5°F4.7°C 35.6°F2.0°C 82% 1.3 mph E2.1 kmh E 2.9 mph4.7 kmh 30.18 in1022.0 mb 0.00 in0.0 mm 0.00 in0.0 mm 0.00 in0.0 mm
09:50 PM 40.3°F4.6°C 35.6°F2.0°C 82% 2.4 mph SE3.9 kmh SE 4.0 mph6.4 kmh 30.18 in1022.0 mb 0.00 in0.0 mm 0.00 in0.0 mm 0.00 in0.0 mm
09:55 PM 40.3°F4.6°C 33.8°F1.0°C 81% 2.6 mph SSE4.2 kmh SSE 4.0 mph6.4 kmh 30.18 in1022.0 mb 0.00 in0.0 mm 0.00 in0.0 mm 0.00 in0.0 mm
10:00 PM 40.3°F4.6°C 33.8°F1.0°C 81% 2.3 mph SSE3.7 kmh SSE 4.0 mph6.4 kmh 30.18 in1022.0 mb 0.00 in0.0 mm 0.00 in0.0 mm 0.00 in0.0 mm
10:05 PM 40.3°F4.6°C 33.8°F1.0°C 81% 2.0 mph S3.2 kmh S 7.6 mph12.2 kmh 30.18 in1022.0 mb 0.00 in0.0 mm 0.00 in0.0 mm 0.00 in0.0 mm
10:10 PM 40.1°F4.5°C 33.8°F1.0°C 80% 2.4 mph SE3.9 kmh SE 7.6 mph12.2 kmh 30.18 in1022.0 mb 0.00 in0.0 mm 0.00 in0.0 mm 0.00 in0.0 mm
10:15 PM 40.1°F4.5°C 33.8°F1.0°C 80% 2.5 mph SE4.0 kmh SE 4.7 mph7.6 kmh 30.18 in1022.0 mb 0.00 in0.0 mm 0.00 in0.0 mm 0.00 in0.0 mm
10:20 PM 40.1°F4.5°C 33.8°F1.0°C 80% 1.8 mph SE2.9 kmh SE 4.7 mph7.6 kmh 30.18 in1022.0 mb 0.00 in0.0 mm 0.00 in0.0 mm 0.00 in0.0 mm
10:25 PM 40.1°F4.5°C 33.8°F1.0°C 80% 1.9 mph SE3.1 kmh SE 4.3 mph6.9 kmh 30.18 in1022.0 mb 0.00 in0.0 mm 0.00 in0.0 mm 0.00 in0.0 mm
10:30 PM 40.1°F4.5°C 33.8°F1.0°C 80% 1.8 mph SE2.9 kmh SE 4.3 mph6.9 kmh 30.18 in1022.0 mb 0.00 in0.0 mm 0.00 in0.0 mm 0.00 in0.0 mm
10:35 PM 40.1°F4.5°C 33.8°F1.0°C 81% 1.5 mph SE2.4 kmh SE 3.6 mph5.8 kmh 30.18 in1022.0 mb 0.00 in0.0 mm 0.00 in0.0 mm 0.00 in0.0 mm
10:40 PM 40.1°F4.5°C 33.8°F1.0°C 80% 1.6 mph SE2.6 kmh SE 3.6 mph5.8 kmh 30.18 in1022.0 mb 0.00 in0.0 mm 0.00 in0.0 mm 0.00 in0.0 mm
10:45 PM 40.1°F4.5°C 33.8°F1.0°C 80% 2.7 mph SE4.3 kmh SE 5.6 mph9.0 kmh 30.18 in1022.0 mb 0.00 in0.0 mm 0.00 in0.0 mm 0.00 in0.0 mm
10:50 PM 40.1°F4.5°C 33.8°F1.0°C 80% 2.7 mph SSE4.3 kmh SSE 5.6 mph9.0 kmh 30.18 in1022.0 mb 0.00 in0.0 mm 0.00 in0.0 mm 0.00 in0.0 mm
10:55 PM 39.9°F4.4°C 33.8°F1.0°C 80% 1.5 mph SE2.4 kmh SE 3.8 mph6.1 kmh 30.18 in1022.0 mb 0.00 in0.0 mm 0.00 in0.0 mm 0.00 in0.0 mm
11:00 PM 39.9°F4.4°C 33.8°F1.0°C 81% 1.2 mph SSE1.9 kmh SSE 2.5 mph4.0 kmh 30.18 in1022.0 mb 0.00 in0.0 mm 0.00 in0.0 mm 0.00 in0.0 mm
11:05 PM 39.9°F4.4°C 33.8°F1.0°C 81% 0.9 mph SSE1.4 kmh SSE 2.2 mph3.5 kmh 30.18 in1022.0 mb 0.00 in0.0 mm 0.00 in0.0 mm 0.00 in0.0 mm
11:10 PM 39.9°F4.4°C 33.8°F1.0°C 81% 0.7 mph SE1.1 kmh SE 2.0 mph3.2 kmh 30.18 in1022.0 mb 0.00 in0.0 mm 0.00 in0.0 mm 0.00 in0.0 mm
11:15 PM 39.9°F4.4°C 33.8°F1.0°C 81% 0.8 mph SSE1.3 kmh SSE 2.0 mph3.2 kmh 30.18 in1022.0 mb 0.00 in0.0 mm 0.00 in0.0 mm 0.00 in0.0 mm
11:20 PM 39.9°F4.4°C 33.8°F1.0°C 81% 0.7 mph S1.1 kmh S 2.7 mph4.3 kmh 30.18 in1022.0 mb 0.00 in0.0 mm 0.00 in0.0 mm 0.00 in0.0 mm
11:25 PM 39.9°F4.4°C 33.8°F1.0°C 81% 0.6 mph S1.0 kmh S 3.1 mph5.0 kmh 30.18 in1022.0 mb 0.00 in0.0 mm 0.00 in0.0 mm 0.00 in0.0 mm
11:30 PM 39.9°F4.4°C 33.8°F1.0°C 81% 0.5 mph S0.8 kmh S 3.4 mph5.5 kmh 30.18 in1022.0 mb 0.00 in0.0 mm 0.00 in0.0 mm 0.00 in0.0 mm
11:35 PM 39.9°F4.4°C 33.8°F1.0°C 81% 0.8 mph S1.3 kmh S 3.4 mph5.5 kmh 30.18 in1022.0 mb 0.00 in0.0 mm 0.00 in0.0 mm 0.00 in0.0 mm
11:40 PM 39.9°F4.4°C 33.8°F1.0°C 81% 0.8 mph S1.3 kmh S 2.2 mph3.5 kmh 30.18 in1022.0 mb 0.00 in0.0 mm 0.00 in0.0 mm 0.00 in0.0 mm
11:45 PM 39.9°F4.4°C 33.8°F1.0°C 81% 0.3 mph SSE0.5 kmh SSE 2.2 mph3.5 kmh 30.18 in1022.0 mb 0.00 in0.0 mm 0.00 in0.0 mm 0.00 in0.0 mm
11:50 PM 39.7°F4.3°C 33.8°F1.0°C 81% Calm Calm -- 30.18 in1022.0 mb 0.00 in0.0 mm 0.00 in0.0 mm 0.00 in0.0 mm
11:55 PM 39.7°F4.3°C 33.8°F1.0°C 81% Calm Calm -- 30.18 in1022.0 mb 0.00 in0.0 mm 0.00 in0.0 mm 0.00 in0.0 mm